Time;durP1;ratioP1;P1;durP2;ratioP2;P2;SDS_P1;SDS_P2;PMS_P1;PMS_P2;Temp;Humidity;BMP_temperature;BMP_pressure;BME280_temperature;BME280_humidity;BME280_pressure;Samples;Min_cycle;Max_cycle;Signal;HPM_P1;HPM_P2
2024/04/13 00:02:17;287366.00;0.96;496.20;36429.00;0.12;63.71;;;;;15.60;1.00;;;;;;2187148;65;1084;-85
2024/04/13 00:04:49;335285.00;1.12;578.57;69209.00;0.23;120.39;;;;;15.70;1.00;;;;;;2187446;65;1561;-88
2024/04/13 00:07:14;15978.00;0.05;28.30;0.00;0.00;0.62;;;;;15.70;1.00;;;;;;2187402;65;2288;-87
2024/04/13 00:09:43;242862.00;0.81;419.67;31132.00;0.10;54.54;;;;;15.40;1.00;;;;;;2187433;65;1900;-86
2024/04/13 00:12:09;159109.00;0.53;275.50;24152.00;0.08;42.46;;;;;15.30;1.00;;;;;;2187491;65;1075;-86
2024/04/13 00:14:37;71196.00;0.24;123.83;0.00;0.00;0.62;;;;;15.40;1.00;;;;;;2187422;65;995;-87
2024/04/13 00:17:03;31801.00;0.11;55.70;0.00;0.00;0.62;;;;;15.70;1.00;;;;;;2187441;65;1245;-86
2024/04/13 00:19:34;48855.00;0.16;85.21;0.00;0.00;0.62;;;;;15.90;1.00;;;;;;2187294;65;2374;-85
2024/04/13 00:22:04;93077.00;0.31;161.62;0.00;0.00;0.62;;;;;15.80;1.00;;;;;;2187125;65;2383;-86
2024/04/13 00:24:33;0.00;0.00;0.62;0.00;0.00;0.62;;;;;15.90;1.00;;;;;;2187347;65;1635;-84
2024/04/13 00:27:00;130912.00;0.44;226.90;0.00;0.00;0.62;;;;;16.00;1.00;;;;;;2187351;65;1170;-85
2024/04/13 00:29:29;25550.00;0.09;44.88;0.00;0.00;0.62;;;;;15.90;1.00;;;;;;2187238;65;1903;-86
2024/04/13 00:31:54;57548.00;0.19;100.24;0.00;0.00;0.62;;;;;16.20;1.00;;;;;;2187095;65;2356;-87
2024/04/13 00:34:23;129835.00;0.43;225.04;25593.00;0.09;44.95;;;;;16.40;1.00;;;;;;2187265;65;1075;-86
2024/04/13 00:36:49;83418.00;0.28;144.94;0.00;0.00;0.62;;;;;16.60;1.00;;;;;;2187267;65;2206;-86
2024/04/13 00:39:20;85392.00;0.28;148.35;0.00;0.00;0.62;;;;;16.70;1.00;;;;;;2187361;65;1064;-86
2024/04/13 00:41:46;15343.00;0.05;27.20;0.00;0.00;0.62;;;;;16.60;1.00;;;;;;2187339;65;1033;-84
2024/04/13 00:44:15;27229.00;0.09;47.79;0.00;0.00;0.62;;;;;16.50;1.00;;;;;;2187272;65;1305;-84
2024/04/13 00:46:42;46507.00;0.16;81.14;0.00;0.00;0.62;;;;;16.20;1.00;;;;;;2187218;65;1237;-87
2024/04/13 00:49:13;23121.00;0.08;40.67;0.00;0.00;0.62;;;;;16.10;1.00;;;;;;2187261;65;1859;-86
2024/04/13 00:51:42;3637.00;0.01;6.92;0.00;0.00;0.62;;;;;16.00;1.00;;;;;;2187173;65;950;-85
2024/04/13 00:54:11;223604.00;0.75;386.54;0.00;0.00;0.62;;;;;16.00;1.00;;;;;;2187378;65;2305;-86
2024/04/13 00:56:42;405292.00;1.35;698.90;78228.00;0.26;135.98;;;;;16.20;1.00;;;;;;2187768;65;1087;-86
2024/04/13 00:59:11;85211.00;0.28;148.04;0.00;0.00;0.62;;;;;16.30;1.00;;;;;;2187792;65;1269;-86
2024/04/13 01:01:38;199458.00;0.66;344.99;0.00;0.00;0.62;;;;;16.30;1.00;;;;;;2187782;65;970;-86
2024/04/13 01:04:08;258240.00;0.86;446.12;45523.00;0.15;79.44;;;;;16.50;1.00;;;;;;2187700;65;1651;-85
2024/04/13 01:06:35;114289.00;0.38;198.23;47852.00;0.16;83.47;;;;;16.80;1.00;;;;;;2187848;65;1253;-86
2024/04/13 01:09:03;69003.00;0.23;120.04;0.00;0.00;0.62;;;;;16.90;1.00;;;;;;2187718;65;1864;-87
2024/04/13 01:11:29;189577.00;0.63;327.98;271.00;0.00;1.09;;;;;17.00;1.00;;;;;;2187711;65;1553;-87
2024/04/13 01:14:01;215973.00;0.72;373.41;0.00;0.00;0.62;;;;;16.50;1.00;;;;;;2187685;65;1611;-86
2024/04/13 01:16:28;194774.00;0.65;336.93;23521.00;0.08;41.37;;;;;16.20;1.00;;;;;;2187749;65;1141;-87
2024/04/13 01:18:56;322167.00;1.07;556.02;0.00;0.00;0.62;;;;;16.00;1.00;;;;;;2187781;65;1218;-87
2024/04/13 01:21:22;278423.00;0.93;480.83;0.00;0.00;0.62;;;;;16.00;1.00;;;;;;2187722;65;1138;-86
2024/04/13 01:24:07;360601.00;1.20;622.08;66788.00;0.22;116.21;;;;;15.70;1.00;;;;;;2187683;65;1564;-86
2024/04/13 01:26:37;65728.00;0.22;114.38;0.00;0.00;0.62;;;;;15.80;1.00;;;;;;2187834;65;890;-86
2024/04/13 01:29:06;134853.00;0.45;233.70;0.00;0.00;0.62;;;;;15.60;1.00;;;;;;2187701;65;1869;-84
2024/04/13 01:31:34;97610.00;0.33;169.45;0.00;0.00;0.62;;;;;15.80;1.00;;;;;;2187636;65;1677;-86
2024/04/13 01:34:04;0.00;0.00;0.62;0.00;0.00;0.62;;;;;15.80;1.00;;;;;;2187655;65;1522;-87
2024/04/13 01:36:35;3139.00;0.01;6.06;0.00;0.00;0.62;;;;;15.60;1.00;;;;;;2187697;65;1636;-86
2024/04/13 01:39:07;232641.00;0.78;402.09;17979.00;0.06;31.77;;;;;15.50;1.00;;;;;;2187683;65;1231;-88
2024/04/13 01:41:36;16691.00;0.06;29.54;0.00;0.00;0.62;;;;;15.50;1.00;;;;;;2187612;65;1615;-85
2024/04/13 01:44:06;1807.00;0.01;3.75;0.00;0.00;0.62;;;;;15.60;1.00;;;;;;2187721;65;1054;-88
2024/04/13 01:46:32;305032.00;1.02;526.57;48874.00;0.16;85.24;;;;;15.50;1.00;;;;;;2187723;65;1622;-88
2024/04/13 01:49:01;69008.00;0.23;120.05;0.00;0.00;0.62;;;;;15.40;1.00;;;;;;2188143;65;1891;-86
2024/04/13 01:51:28;247491.00;0.82;427.64;55613.00;0.19;96.89;;;;;15.20;1.00;;;;;;2187727;65;1316;-85
2024/04/13 01:53:56;77406.00;0.26;134.56;0.00;0.00;0.62;;;;;15.10;1.00;;;;;;2187591;65;1083;-87
2024/04/13 01:56:25;28973.00;0.10;50.81;0.00;0.00;0.62;;;;;14.90;1.00;;;;;;2187750;65;1035;-87
2024/04/13 01:58:53;10034.00;0.03;18.01;0.00;0.00;0.62;;;;;14.40;1.00;;;;;;2187687;65;1238;-88
2024/04/13 02:01:20;250749.00;0.84;433.24;73446.00;0.24;127.71;;;;;14.70;1.00;;;;;;2187674;65;1048;-88
2024/04/13 02:03:48;224777.00;0.75;388.56;0.00;0.00;0.62;;;;;14.90;1.00;;;;;;2187648;65;2369;-85
2024/04/13 02:06:15;102575.00;0.34;178.02;0.00;0.00;0.62;;;;;15.40;1.00;;;;;;2187556;65;1173;-87
2024/04/13 02:08:43;317853.00;1.06;548.61;11436.00;0.04;20.44;;;;;15.50;1.00;;;;;;2187594;65;1890;-86
2024/04/13 02:11:10;87377.00;0.29;151.78;0.00;0.00;0.62;;;;;15.40;1.00;;;;;;2187711;65;1085;-86
2024/04/13 02:13:41;11685.00;0.04;20.87;0.00;0.00;0.62;;;;;15.10;1.00;;;;;;2187747;65;1291;-87
2024/04/13 02:16:07;187534.00;0.63;324.46;0.00;0.00;0.62;;;;;14.50;1.00;;;;;;2187740;65;868;-85
2024/04/13 02:18:37;59125.00;0.20;102.96;0.00;0.00;0.62;;;;;14.40;1.00;;;;;;2187704;65;1683;-87
2024/04/13 02:21:03;333116.00;1.11;574.84;132002.00;0.44;228.78;;;;;14.40;1.00;;;;;;2187615;65;1295;-88
2024/04/13 02:23:32;4073.00;0.01;7.68;0.00;0.00;0.62;;;;;14.40;1.00;;;;;;2187527;65;2403;-87
2024/04/13 02:25:59;50337.00;0.17;87.77;0.00;0.00;0.62;;;;;14.40;1.00;;;;;;2187574;65;1091;-86
2024/04/13 02:28:28;66619.00;0.22;115.92;0.00;0.00;0.62;;;;;14.20;1.00;;;;;;2187812;65;2390;-89
2024/04/13 02:30:57;195500.00;0.65;338.18;38808.00;0.13;67.83;;;;;14.20;1.00;;;;;;2187435;65;2394;-86
2024/04/13 02:33:25;254845.00;0.85;440.28;26676.00;0.09;46.83;;;;;14.20;1.00;;;;;;2187451;65;1105;-87
2024/04/13 02:35:58;79593.00;0.27;138.33;0.00;0.00;0.62;;;;;14.00;1.00;;;;;;2187407;65;2340;-85
2024/04/13 02:38:27;184467.00;0.61;319.18;0.00;0.00;0.62;;;;;14.00;1.00;;;;;;2187474;65;1617;-85
2024/04/13 02:40:56;120539.00;0.40;209.01;0.00;0.00;0.62;;;;;13.90;1.00;;;;;;2187491;65;944;-86
2024/04/13 02:43:25;35166.00;0.12;61.52;0.00;0.00;0.62;;;;;13.70;1.00;;;;;;2187566;65;1015;-86
2024/04/13 02:45:51;198701.00;0.66;343.69;49463.00;0.16;86.26;;;;;13.80;1.00;;;;;;2187475;65;1080;-86
2024/04/13 02:48:23;53834.00;0.18;93.82;0.00;0.00;0.62;;;;;13.90;1.00;;;;;;2187349;65;1901;-85
2024/04/13 02:50:49;75962.00;0.25;132.06;0.00;0.00;0.62;;;;;14.20;1.00;;;;;;2187489;65;832;-85
2024/04/13 02:53:17;179973.00;0.60;311.44;35417.00;0.12;61.96;;;;;14.90;1.00;;;;;;2187369;65;923;-86
2024/04/13 02:55:44;103165.00;0.34;179.03;0.00;0.00;0.62;;;;;14.80;1.00;;;;;;2187556;65;1644;-86
2024/04/13 02:58:13;73662.00;0.25;128.09;0.00;0.00;0.62;;;;;14.60;1.00;;;;;;2187773;65;1252;-86
2024/04/13 03:00:38;13796.00;0.05;24.53;0.00;0.00;0.62;;;;;14.80;1.00;;;;;;2187435;65;1019;-85
2024/04/13 03:03:07;140481.00;0.47;243.40;29930.00;0.10;52.46;;;;;14.90;1.00;;;;;;2187528;65;1996;-87
2024/04/13 03:05:37;60192.00;0.20;104.81;0.00;0.00;0.62;;;;;14.50;1.00;;;;;;2187512;65;1621;-85
2024/04/13 03:08:06;167733.00;0.56;290.36;37715.00;0.13;65.93;;;;;14.60;1.00;;;;;;2187273;65;1864;-85
2024/04/13 03:10:32;28711.00;0.10;50.35;0.00;0.00;0.62;;;;;14.10;1.00;;;;;;2187425;65;2105;-86
2024/04/13 03:13:01;35985.00;0.12;62.94;0.00;0.00;0.62;;;;;14.00;1.00;;;;;;2187294;65;2309;-85
2024/04/13 03:15:27;75165.00;0.25;130.68;0.00;0.00;0.62;;;;;14.10;1.00;;;;;;2187348;65;987;-86
2024/04/13 03:17:56;5962.00;0.02;10.95;0.00;0.00;0.62;;;;;14.60;1.00;;;;;;2187444;65;1247;-87
2024/04/13 03:20:22;294.00;0.00;1.13;0.00;0.00;0.62;;;;;14.80;1.00;;;;;;2187280;65;1109;-87
2024/04/13 03:22:53;3615.00;0.01;6.89;0.00;0.00;0.62;;;;;14.70;1.00;;;;;;2187337;65;1091;-87
2024/04/13 03:25:19;35672.00;0.12;62.40;0.00;0.00;0.62;;;;;14.40;1.00;;;;;;2187475;65;971;-86
2024/04/13 03:27:48;274551.00;0.92;474.17;0.00;0.00;0.62;;;;;14.20;1.00;;;;;;2187581;65;1223;-88
2024/04/13 03:30:14;21962.00;0.07;38.67;0.00;0.00;0.62;;;;;14.60;1.00;;;;;;2187461;65;1866;-87
2024/04/13 03:32:42;0.00;0.00;0.62;0.00;0.00;0.62;;;;;14.60;1.00;;;;;;2187616;65;1092;-87
2024/04/13 03:35:09;332684.00;1.11;574.10;57384.00;0.19;99.95;;;;;14.60;1.00;;;;;;2187531;65;2040;-88
2024/04/13 03:37:38;253589.00;0.85;438.12;75786.00;0.25;131.76;;;;;14.30;1.00;;;;;;2187551;65;1204;-86
2024/04/13 03:40:13;43093.00;0.14;75.24;0.00;0.00;0.62;;;;;13.90;1.00;;;;;;2187608;65;2343;-88
2024/04/13 03:42:45;94853.00;0.32;164.69;0.00;0.00;0.62;;;;;13.50;1.00;;;;;;2187608;65;1374;-87
2024/04/13 03:45:11;33273.00;0.11;58.25;0.00;0.00;0.62;;;;;13.40;1.00;;;;;;2187296;65;1697;-87
2024/04/13 03:47:39;232519.00;0.78;401.88;41347.00;0.14;72.22;;;;;13.40;1.00;;;;;;2187289;65;1228;-86
2024/04/13 03:50:06;47966.00;0.16;83.67;0.00;0.00;0.62;;;;;13.60;1.00;;;;;;2187187;65;1869;-87
2024/04/13 03:52:35;66344.00;0.22;115.44;0.00;0.00;0.62;;;;;13.80;1.00;;;;;;2187443;65;1000;-87
2024/04/13 03:55:01;92634.00;0.31;160.86;0.00;0.00;0.62;;;;;13.80;1.00;;;;;;2187428;65;1058;-87
2024/04/13 03:57:33;10606.00;0.04;19.00;0.00;0.00;0.62;;;;;13.80;1.00;;;;;;2187153;65;1231;-87
2024/04/13 03:59:58;78044.00;0.26;135.66;11903.00;0.04;21.25;;;;;14.00;1.00;;;;;;2187424;65;1135;-86
2024/04/13 04:02:27;103452.00;0.34;179.53;0.00;0.00;0.62;;;;;13.70;1.00;;;;;;2187234;65;1047;-86
2024/04/13 04:04:54;0.00;0.00;0.62;0.00;0.00;0.62;;;;;13.70;1.00;;;;;;2187243;65;1103;-86
2024/04/13 04:07:22;77736.00;0.26;135.13;0.00;0.00;0.62;;;;;13.80;1.00;;;;;;2187127;65;1203;-86
2024/04/13 04:09:48;67624.00;0.23;117.65;0.00;0.00;0.62;;;;;13.80;1.00;;;;;;2187310;65;1865;-86
2024/04/13 04:12:16;10815.00;0.04;19.36;0.00;0.00;0.62;;;;;14.00;1.00;;;;;;2187305;65;1276;-87
2024/04/13 04:14:47;0.00;0.00;0.62;0.00;0.00;0.62;;;;;14.20;1.00;;;;;;2187262;65;955;-88
2024/04/13 04:17:13;42908.00;0.14;74.92;0.00;0.00;0.62;;;;;14.00;1.00;;;;;;2187246;65;1351;-88
2024/04/13 04:19:42;25341.00;0.08;44.52;0.00;0.00;0.62;;;;;14.00;1.00;;;;;;2187278;65;1023;-90
2024/04/13 04:22:09;58249.00;0.19;101.45;0.00;0.00;0.62;;;;;14.30;1.00;;;;;;2187172;65;1146;-86
2024/04/13 04:24:38;33237.00;0.11;58.19;0.00;0.00;0.62;;;;;14.90;1.00;;;;;;2187363;65;2241;-86
2024/04/13 04:27:05;6162.00;0.02;11.30;0.00;0.00;0.62;;;;;14.80;1.00;;;;;;2187344;65;1271;-87
2024/04/13 04:29:34;31972.00;0.11;56.00;0.00;0.00;0.62;;;;;14.50;1.00;;;;;;2187211;65;1870;-86
2024/04/13 04:32:02;287972.00;0.96;497.24;19311.00;0.06;34.08;;;;;14.00;1.00;;;;;;2187761;65;1081;-86
2024/04/13 04:34:31;141916.00;0.47;245.87;0.00;0.00;0.62;;;;;14.10;1.00;;;;;;2187740;65;1051;-84
2024/04/13 04:36:57;338464.00;1.13;584.03;132034.00;0.44;228.84;;;;;14.10;1.00;;;;;;2187676;65;1201;-86
2024/04/13 04:39:25;55514.00;0.19;96.72;0.00;0.00;0.62;;;;;13.50;1.00;;;;;;2187776;65;1622;-88
2024/04/13 04:41:51;74273.00;0.25;129.14;0.00;0.00;0.62;;;;;13.10;1.00;;;;;;2187734;65;1006;-87
2024/04/13 04:44:20;263969.00;0.88;455.97;57126.00;0.19;99.51;;;;;12.60;1.00;;;;;;2187686;65;1643;-86
2024/04/13 04:46:46;411018.00;1.37;708.75;100789.00;0.34;174.93;;;;;12.40;1.00;;;;;;2187862;65;1253;-87
2024/04/13 04:49:17;0.00;0.00;0.62;0.00;0.00;0.62;;;;;12.30;1.00;;;;;;2187802;65;1907;-86
2024/04/13 04:51:43;220714.00;0.74;381.57;20382.00;0.07;35.93;;;;;12.50;1.00;;;;;;2187903;65;970;-86
2024/04/13 04:54:11;397873.00;1.33;686.15;34868.00;0.12;61.01;;;;;13.10;1.00;;;;;;2187909;65;1022;-87
2024/04/13 04:56:37;197963.00;0.66;342.42;44194.00;0.15;77.14;;;;;13.60;1.00;;;;;;2187914;65;1037;-88
2024/04/13 04:59:06;45063.00;0.15;78.65;0.00;0.00;0.62;;;;;14.10;1.00;;;;;;2187264;65;1883;-87
2024/04/13 05:01:31;172786.00;0.58;299.07;34174.00;0.11;59.81;;;;;14.10;1.00;;;;;;2187854;65;1088;-87
2024/04/13 05:04:00;233658.00;0.78;403.84;23249.00;0.08;40.90;;;;;13.90;1.00;;;;;;2187792;65;2356;-88
2024/04/13 05:06:29;149061.00;0.50;258.19;0.00;0.00;0.62;;;;;13.40;1.00;;;;;;2187912;65;945;-87
2024/04/13 05:08:59;137396.00;0.46;238.08;31791.00;0.11;55.68;;;;;13.10;1.00;;;;;;2187749;65;1907;-87
2024/04/13 05:11:28;128743.00;0.43;223.16;0.00;0.00;0.62;;;;;13.00;1.00;;;;;;2187692;65;1568;-87
2024/04/13 05:13:54;86292.00;0.29;149.90;0.00;0.00;0.62;;;;;13.00;1.00;;;;;;2187967;65;1096;-87
2024/04/13 05:16:22;255949.00;0.85;442.18;10351.00;0.03;18.56;;;;;13.20;1.00;;;;;;2187763;65;1479;-89
2024/04/13 05:18:48;127834.00;0.43;221.59;0.00;0.00;0.62;;;;;13.60;1.00;;;;;;2187805;65;1272;-85
2024/04/13 05:21:16;89641.00;0.30;155.69;0.00;0.00;0.62;;;;;13.70;1.00;;;;;;2187872;65;1005;-87
2024/04/13 05:23:45;128030.00;0.43;221.93;0.00;0.00;0.62;;;;;14.30;1.00;;;;;;2187855;65;935;-88
2024/04/13 05:26:13;288929.00;0.96;498.89;56169.00;0.19;97.85;;;;;14.70;1.00;;;;;;2187844;65;1057;-86
2024/04/13 05:28:39;554106.00;1.85;955.04;86066.00;0.29;149.51;;;;;15.10;1.00;;;;;;2188132;65;1901;-85
2024/04/13 05:31:09;223208.00;0.74;385.86;55023.00;0.18;95.87;;;;;15.20;1.00;;;;;;2187726;65;1008;-86
2024/04/13 05:33:35;69574.00;0.23;121.02;0.00;0.00;0.62;;;;;15.10;1.00;;;;;;2187805;65;966;-87
2024/04/13 05:36:04;51149.00;0.17;89.17;0.00;0.00;0.62;;;;;15.00;1.00;;;;;;2187754;65;1078;-87
2024/04/13 05:38:30;39596.00;0.13;69.19;0.00;0.00;0.62;;;;;14.80;1.00;;;;;;2187760;65;1206;-88
2024/04/13 05:41:02;129427.00;0.43;224.34;23383.00;0.08;41.13;;;;;14.80;1.00;;;;;;2187211;65;1105;-87
2024/04/13 05:43:29;5608.00;0.02;10.34;0.00;0.00;0.62;;;;;15.40;1.00;;;;;;2187049;65;955;-89
2024/04/13 05:45:58;110595.00;0.37;191.86;0.00;0.00;0.62;;;;;14.80;1.00;;;;;;2253406;60;3643;-89
2024/04/13 05:48:24;25523.00;0.09;44.83;0.00;0.00;0.62;;;;;14.80;1.00;;;;;;2176626;66;1171;-88
2024/04/13 05:50:58;151574.00;0.51;262.52;0.00;0.00;0.62;;;;;15.70;1.00;;;;;;2191970;61;3467;-84
2024/04/13 05:53:25;29664.00;0.10;52.00;0.00;0.00;0.62;;;;;17.10;1.00;;;;;;2181520;65;1478;-83
2024/04/13 05:55:53;363194.00;1.21;626.54;40930.00;0.14;71.50;;;;;18.20;1.00;;;;;;2181673;65;1065;-85
2024/04/13 05:58:22;0.00;0.00;0.62;0.00;0.00;0.62;;;;;19.30;1.00;;;;;;2180845;65;2286;-84
2024/04/13 06:00:51;15327.00;0.05;27.18;0.00;0.00;0.62;;;;;20.00;1.00;;;;;;2181722;65;1722;-84
2024/04/13 06:03:16;0.00;0.00;0.62;0.00;0.00;0.62;;;;;20.20;1.00;;;;;;2181405;65;1621;-84
2024/04/13 06:05:46;98678.00;0.33;171.29;32752.00;0.11;57.35;;;;;20.30;1.00;;;;;;2181752;65;942;-85
2024/04/13 06:08:11;27934.00;0.09;49.01;0.00;0.00;0.62;;;;;20.50;1.00;;;;;;2177366;65;1388;-84
2024/04/13 06:10:40;22434.00;0.07;39.48;0.00;0.00;0.62;;;;;21.30;1.00;;;;;;2175872;66;1866;-85
2024/04/13 06:13:06;2014.00;0.01;4.11;0.00;0.00;0.62;;;;;21.90;1.00;;;;;;2175958;66;1100;-85
2024/04/13 06:15:39;0.00;0.00;0.62;0.00;0.00;0.62;;;;;22.50;1.00;;;;;;2175707;66;1064;-85
2024/04/13 06:18:05;108766.00;0.36;188.70;0.00;0.00;0.62;;;;;23.10;1.00;;;;;;2176080;66;1283;-85
2024/04/13 06:20:33;184506.00;0.62;319.25;13573.00;0.05;24.14;;;;;23.70;1.00;;;;;;2175458;66;881;-85
2024/04/13 06:22:59;59130.00;0.20;102.97;0.00;0.00;0.62;;;;;24.90;1.00;;;;;;2175956;66;922;-85
2024/04/13 06:25:28;0.00;0.00;0.62;0.00;0.00;0.62;;;;;24.30;1.00;;;;;;2176204;66;899;-85
2024/04/13 06:27:54;0.00;0.00;0.62;0.00;0.00;0.62;;;;;23.60;1.00;;;;;;2176156;66;1235;-84
2024/04/13 06:30:22;78398.00;0.26;136.27;0.00;0.00;0.62;;;;;23.80;1.00;;;;;;2176641;66;1865;-86
2024/04/13 06:32:51;2417.00;0.01;4.81;0.00;0.00;0.62;;;;;23.80;1.00;;;;;;2176219;66;1080;-84
2024/04/13 06:35:20;71501.00;0.24;124.35;0.00;0.00;0.62;;;;;24.10;1.00;;;;;;2176197;66;1008;-83
2024/04/13 06:37:46;0.00;0.00;0.62;0.00;0.00;0.62;;;;;24.40;1.00;;;;;;2175875;66;1561;-85
2024/04/13 06:40:14;373656.00;1.25;644.52;66743.00;0.22;116.13;;;;;25.10;1.00;;;;;;2176184;66;1051;-85
2024/04/13 06:42:40;268922.00;0.90;464.49;93599.00;0.31;162.52;;;;;25.70;1.00;;;;;;2176253;66;982;-84
2024/04/13 06:45:09;57380.00;0.19;99.95;0.00;0.00;0.62;;;;;26.20;1.00;;;;;;2176240;66;2340;-84
2024/04/13 06:47:35;0.00;0.00;0.62;0.00;0.00;0.62;;;;;26.20;1.00;;;;;;2176394;66;1241;-84
2024/04/13 06:50:07;95546.00;0.32;165.88;25032.00;0.08;43.98;;;;;26.30;1.00;;;;;;2176221;66;1875;-84
2024/04/13 06:52:33;0.00;0.00;0.62;0.00;0.00;0.62;;;;;26.30;1.00;;;;;;2176171;66;1017;-85
2024/04/13 06:55:01;39081.00;0.13;68.30;0.00;0.00;0.62;;;;;26.20;1.00;;;;;;2176262;66;1087;-86
2024/04/13 06:57:27;41739.00;0.14;72.90;0.00;0.00;0.62;;;;;26.30;1.00;;;;;;2176096;66;1243;-85
2024/04/13 06:59:56;16444.00;0.05;29.11;0.00;0.00;0.62;;;;;26.70;1.00;;;;;;2176715;66;941;-84
2024/04/13 07:02:22;0.00;0.00;0.62;0.00;0.00;0.62;;;;;26.50;1.00;;;;;;2176063;66;912;-86
2024/04/13 07:04:52;142233.00;0.47;246.42;0.00;0.00;0.62;;;;;26.30;1.00;;;;;;2176002;66;1078;-87
2024/04/13 07:07:21;27248.00;0.09;47.82;0.00;0.00;0.62;;;;;26.90;1.00;;;;;;2175265;66;1309;-87
2024/04/13 07:12:25;600359.00;2.00;1034.84;0.00;0.00;0.62;;;;;28.30;1.00;;;;;;2208438;60;3518;-87
2024/04/13 07:14:51;56623.00;0.19;98.64;0.00;0.00;0.62;;;;;28.30;1.00;;;;;;2181484;65;1540;-86
2024/04/13 07:17:19;132099.00;0.44;228.95;0.00;0.00;0.62;;;;;28.70;1.00;;;;;;2181158;65;1226;-86
2024/04/13 07:19:48;116600.00;0.39;202.22;0.00;0.00;0.62;;;;;28.30;1.00;;;;;;2181442;65;1041;-86
2024/04/13 07:22:16;70543.00;0.24;122.70;0.00;0.00;0.62;;;;;28.80;1.00;;;;;;2181243;65;1019;-86
2024/04/13 07:24:45;89056.00;0.30;154.68;0.00;0.00;0.62;;;;;29.50;1.00;;;;;;2183751;60;3649;-87
2024/04/13 07:27:13;234070.00;0.78;404.55;0.00;0.00;0.62;;;;;28.70;1.00;;;;;;2181455;65;1250;-86
2024/04/13 07:29:39;162296.00;0.54;281.00;0.00;0.00;0.62;;;;;29.20;1.00;;;;;;2181489;65;1895;-88
2024/04/13 07:32:08;126909.00;0.42;220.00;0.00;0.00;0.62;;;;;29.20;1.00;;;;;;2181606;65;1100;-86
2024/04/13 07:34:36;77047.00;0.26;133.94;0.00;0.00;0.62;;;;;28.90;1.00;;;;;;2181370;65;1628;-87
2024/04/13 07:37:04;99636.00;0.33;172.94;0.00;0.00;0.62;;;;;28.60;1.00;;;;;;2181154;65;1715;-87
2024/04/13 07:39:30;69872.00;0.23;121.54;0.00;0.00;0.62;;;;;28.40;1.00;;;;;;2181085;65;1005;-88
2024/04/13 07:42:02;88243.00;0.29;153.27;0.00;0.00;0.62;;;;;28.20;1.00;;;;;;2181102;65;1011;-88
2024/04/13 07:44:28;42486.00;0.14;74.19;0.00;0.00;0.62;;;;;28.60;1.00;;;;;;2180967;65;1033;-88
2024/04/13 07:46:57;153681.00;0.51;266.15;28651.00;0.10;50.25;;;;;28.80;1.00;;;;;;2181282;65;1626;-86
2024/04/13 07:49:23;139445.00;0.46;241.61;24067.00;0.08;42.31;;;;;29.30;1.00;;;;;;2181326;65;1864;-86
2024/04/13 07:51:52;197783.00;0.66;342.11;0.00;0.00;0.62;;;;;28.50;1.00;;;;;;2176338;65;1322;-88
2024/04/13 07:54:18;31480.00;0.10;55.14;0.00;0.00;0.62;;;;;28.60;1.00;;;;;;2181581;65;1723;-89
2024/04/13 07:56:47;116052.00;0.39;201.27;0.00;0.00;0.62;;;;;28.60;1.00;;;;;;2183267;60;3550;-87
2024/04/13 07:59:16;46817.00;0.16;81.68;0.00;0.00;0.62;;;;;28.30;1.00;;;;;;2191486;61;3540;-90
2024/04/13 08:01:45;145735.00;0.49;252.46;0.00;0.00;0.62;;;;;28.50;1.00;;;;;;2204193;60;3695;-89
2024/04/13 08:04:11;13123.00;0.04;23.36;0.00;0.00;0.62;;;;;28.20;1.00;;;;;;2169841;66;1718;-88
2024/04/13 08:06:40;420435.00;1.40;724.94;37834.00;0.13;66.14;;;;;27.90;1.00;;;;;;2170026;66;943;-88
2024/04/13 08:09:06;83371.00;0.28;144.86;0.00;0.00;0.62;;;;;27.90;1.00;;;;;;2169988;66;1940;-89
2024/04/13 08:11:35;313768.00;1.05;541.59;42412.00;0.14;74.06;;;;;27.60;1.00;;;;;;2169807;66;1568;-88
2024/04/13 08:14:02;270117.00;0.90;466.55;0.00;0.00;0.62;;;;;27.80;1.00;;;;;;2170176;66;1629;-89
2024/04/13 08:16:33;39253.00;0.13;68.60;0.00;0.00;0.62;;;;;27.90;1.00;;;;;;2174864;61;3543;-88
2024/04/13 08:18:59;178025.00;0.59;308.09;0.00;0.00;0.62;;;;;27.90;1.00;;;;;;2187207;65;1649;-88
2024/04/13 08:21:29;189889.00;0.63;328.52;0.00;0.00;0.62;;;;;27.80;1.00;;;;;;2187312;65;1602;-87
2024/04/13 08:26:26;191169.00;0.64;330.72;0.00;0.00;0.62;;;;;28.30;1.00;;;;;;2175174;66;1384;-87
2024/04/13 08:28:52;208602.00;0.70;360.73;0.00;0.00;0.62;;;;;28.00;1.00;;;;;;2192984;60;3707;-87
2024/04/13 08:31:21;162503.00;0.54;281.35;0.00;0.00;0.62;;;;;28.20;1.00;;;;;;2181990;66;1881;-89
2024/04/13 08:33:50;508937.00;1.70;877.21;80696.00;0.27;140.24;;;;;28.30;1.00;;;;;;2182033;66;639;-88
2024/04/13 08:36:19;48224.00;0.16;84.11;0.00;0.00;0.62;;;;;27.70;1.00;;;;;;2181267;65;2146;-88
2024/04/13 08:38:45;228358.00;0.76;394.72;0.00;0.00;0.62;;;;;27.90;1.00;;;;;;2181408;65;1504;-88
2024/04/13 08:41:16;253707.00;0.85;438.33;0.00;0.00;0.62;;;;;27.40;1.00;;;;;;2181335;65;911;-89
2024/04/13 08:43:42;170302.00;0.57;294.79;39780.00;0.13;69.51;;;;;26.60;1.00;;;;;;2190154;60;3565;-85
2024/04/13 08:46:11;242920.00;0.81;419.77;0.00;0.00;0.62;;;;;25.80;1.00;;;;;;2186557;65;1421;-87
2024/04/13 08:48:38;167123.00;0.56;289.31;0.00;0.00;0.62;;;;;25.70;1.00;;;;;;2187152;65;1210;-88
2024/04/13 08:51:12;111133.00;0.37;192.78;0.00;0.00;0.62;;;;;26.30;1.00;;;;;;2187024;65;1897;-87
2024/04/13 09:01:17;309077.00;1.03;533.52;0.00;0.00;0.62;;;;;26.40;1.00;;;;;;2186562;65;1454;-88
2024/04/13 09:03:44;97703.00;0.33;169.61;29555.00;0.10;51.81;;;;;26.30;1.00;;;;;;2187164;65;863;-89
2024/04/13 09:06:15;105728.00;0.35;183.46;0.00;0.00;0.62;;;;;25.60;1.00;;;;;;2186966;65;1000;-87
2024/04/13 09:08:44;148189.00;0.49;256.69;0.00;0.00;0.62;;;;;25.20;1.00;;;;;;2186980;65;1489;-88
2024/04/13 09:11:13;415634.00;1.39;716.68;89693.00;0.30;155.78;;;;;25.00;1.00;;;;;;2187092;65;1869;-87
2024/04/13 09:13:40;501280.00;1.67;864.03;114623.00;0.38;198.81;;;;;25.10;1.00;;;;;;2187128;65;1554;-89
2024/04/13 09:18:44;281598.00;0.94;486.28;0.00;0.00;0.62;;;;;25.60;1.00;;;;;;2187066;65;1397;-86
2024/04/13 09:21:13;436745.00;1.46;752.98;107194.00;0.36;185.99;;;;;25.60;1.00;;;;;;2187691;65;1414;-88
2024/04/13 09:23:44;52035.00;0.17;90.71;0.00;0.00;0.62;;;;;25.60;1.00;;;;;;2187746;65;1744;-86
2024/04/13 09:26:10;48419.00;0.16;84.45;0.00;0.00;0.62;;;;;25.80;1.00;;;;;;2188133;65;1078;-87
2024/04/13 09:28:44;111838.00;0.37;194.00;45838.00;0.15;79.99;;;;;25.20;1.00;;;;;;2188050;65;1285;-88
2024/04/13 09:31:11;255734.00;0.85;441.81;0.00;0.00;0.62;;;;;25.40;1.00;;;;;;2187560;65;1897;-88
2024/04/13 09:33:40;31233.00;0.10;54.72;0.00;0.00;0.62;;;;;24.80;1.00;;;;;;2187630;65;946;-86
2024/04/13 09:36:08;869149.00;2.90;1502.00;114401.00;0.38;198.42;;;;;24.90;1.00;;;;;;2187622;65;1544;-87
2024/04/13 09:38:39;1399925.00;4.67;2456.18;386726.00;1.29;666.99;;;;;25.30;1.00;;;;;;2187602;65;1690;-87
2024/04/13 09:41:07;193647.00;0.65;334.99;53420.00;0.18;93.10;;;;;25.30;1.00;;;;;;2187701;65;934;-86
2024/04/13 09:43:35;50665.00;0.17;88.34;0.00;0.00;0.62;;;;;25.60;1.00;;;;;;2187630;65;844;-88
2024/04/13 09:46:02;169186.00;0.56;292.86;10283.00;0.03;18.44;;;;;25.60;1.00;;;;;;2187732;65;866;-85
2024/04/13 09:48:31;262934.00;0.88;454.19;28104.00;0.09;49.30;;;;;25.90;1.00;;;;;;2187539;65;2285;-87
2024/04/13 09:51:00;158651.00;0.53;274.71;35087.00;0.12;61.39;;;;;26.00;1.00;;;;;;2187463;65;1889;-86
2024/04/13 09:53:29;168115.00;0.56;291.02;0.00;0.00;0.62;;;;;25.50;1.00;;;;;;2187461;65;1048;-87
2024/04/13 09:55:58;7877.00;0.03;14.27;0.00;0.00;0.62;;;;;25.00;1.00;;;;;;2187403;65;1026;-87
2024/04/13 09:58:27;44871.00;0.15;78.32;0.00;0.00;0.62;;;;;24.30;1.00;;;;;;2187578;65;1673;-87
2024/04/13 10:00:54;116417.00;0.39;201.90;32661.00;0.11;57.19;;;;;24.30;1.00;;;;;;2187584;65;919;-88
2024/04/13 10:03:22;526325.00;1.75;907.16;177807.00;0.59;307.71;;;;;24.70;1.00;;;;;;2187423;65;1498;-88
2024/04/13 10:05:49;532350.00;1.77;917.54;141228.00;0.47;244.69;;;;;24.20;1.00;;;;;;2187623;65;1033;-87
2024/04/13 10:08:18;69124.00;0.23;120.25;0.00;0.00;0.62;;;;;24.30;1.00;;;;;;2187640;65;1620;-87
2024/04/13 10:10:48;24447.00;0.08;42.97;0.00;0.00;0.62;;;;;24.30;1.00;;;;;;2182409;65;1899;-88
2024/04/13 10:13:31;136637.00;0.46;236.77;0.00;0.00;0.62;;;;;24.30;1.00;;;;;;2187458;65;1408;-88
2024/04/13 10:15:59;4410.00;0.01;8.26;0.00;0.00;0.62;;;;;24.40;1.00;;;;;;2187384;65;1100;-87
2024/04/13 10:18:28;104905.00;0.35;182.04;0.00;0.00;0.62;;;;;24.80;1.00;;;;;;2187472;65;1404;-87